Time;durP1;ratioP1;P1;durP2;ratioP2;P2;SDS_P1;SDS_P2;PMS_P1;PMS_P2;Temp;Humidity;BMP_temperature;BMP_pressure;BME280_temperature;BME280_humidity;BME280_pressure;Samples;Min_cycle;Max_cycle;Signal;HPM_P1;HPM_P2
2022/04/27 00:01:45;;;;;;;;;12.75;12.75;;;;;;;;5084449;27;45583;-63
2022/04/27 00:04:10;;;;;;;;;14.00;14.00;;;;;;;;5078914;27;45601;-62
2022/04/27 00:06:35;;;;;;;;;13.50;12.50;;;;;;;;5079141;27;45355;-63
2022/04/27 00:09:00;;;;;;;;;10.50;10.50;;;;;;;;5076755;27;46525;-63
2022/04/27 00:11:25;;;;;;;;;11.75;11.75;;;;;;;;5078638;27;45432;-63
2022/04/27 00:13:51;;;;;;;;;14.00;12.00;;;;;;;;5078918;27;45357;-63
2022/04/27 00:16:16;;;;;;;;;13.50;12.00;;;;;;;;5078863;27;45481;-63
2022/04/27 00:18:41;;;;;;;;;11.75;11.75;;;;;;;;5078620;27;45578;-63
2022/04/27 00:21:06;;;;;;;;;12.50;11.25;;;;;;;;5076498;27;45411;-63
2022/04/27 00:23:33;;;;;;;;;17.75;14.25;;;;;;;;5073477;27;45382;-63
2022/04/27 00:25:58;;;;;;;;;15.25;15.25;;;;;;;;5083938;27;45558;-64
2022/04/27 00:28:23;;;;;;;;;14.50;11.50;;;;;;;;5060007;28;47522;-63
2022/04/27 00:30:49;;;;;;;;;5.50;5.50;;;;;;;;5078507;27;45578;-63
2022/04/27 00:33:15;;;;;;;;;7.50;6.25;;;;;;;;5076321;27;45500;-62
2022/04/27 00:35:40;;;;;;;;;13.00;12.00;;;;;;;;5078369;27;45403;-62
2022/04/27 00:38:05;;;;;;;;;14.75;13.75;;;;;;;;5060108;28;47874;-62
2022/04/27 00:40:31;;;;;;;;;15.00;15.00;;;;;;;;5059914;28;45486;-62
2022/04/27 00:42:56;;;;;;;;;11.00;11.00;;;;;;;;5078634;27;45491;-62
2022/04/27 00:45:21;;;;;;;;;13.00;13.00;;;;;;;;5076912;27;45303;-62
2022/04/27 00:47:46;;;;;;;;;19.00;15.50;;;;;;;;5077375;27;46626;-62
2022/04/27 00:50:12;;;;;;;;;11.25;11.00;;;;;;;;5077445;27;45531;-62
2022/04/27 00:52:38;;;;;;;;;14.00;14.00;;;;;;;;5078206;27;45361;-62
2022/04/27 00:55:04;;;;;;;;;17.00;12.25;;;;;;;;5078411;27;45406;-62
2022/04/27 00:57:30;;;;;;;;;12.50;12.50;;;;;;;;5077501;27;47572;-62
2022/04/27 00:59:55;;;;;;;;;11.25;9.50;;;;;;;;5075647;27;45308;-62
2022/04/27 01:02:20;;;;;;;;;17.00;15.00;;;;;;;;5093051;27;45433;-63
2022/04/27 01:04:47;;;;;;;;;15.50;12.50;;;;;;;;5085118;27;45505;-62
2022/04/27 01:07:12;;;;;;;;;16.50;13.25;;;;;;;;5077846;27;45578;-62
2022/04/27 01:09:38;;;;;;;;;13.25;12.75;;;;;;;;5077748;27;45337;-63
2022/04/27 01:12:04;;;;;;;;;15.75;14.50;;;;;;;;5075559;27;45532;-63
2022/04/27 01:14:39;;;;;;;;;15.75;14.75;;;;;;;;5077967;27;45482;-63
2022/04/27 01:17:05;;;;;;;;;14.50;12.75;;;;;;;;5077629;27;46376;-62
2022/04/27 01:19:31;;;;;;;;;13.50;13.00;;;;;;;;5077494;27;45348;-62
2022/04/27 01:21:56;;;;;;;;;15.25;14.00;;;;;;;;5077910;27;45381;-62
2022/04/27 01:24:24;;;;;;;;;11.75;11.75;;;;;;;;5059202;27;45678;-62
2022/04/27 01:26:49;;;;;;;;;14.00;14.00;;;;;;;;5076405;27;45420;-63
2022/04/27 01:29:15;;;;;;;;;16.00;16.00;;;;;;;;5077522;27;45499;-62
2022/04/27 01:31:41;;;;;;;;;15.25;13.75;;;;;;;;5077758;27;45335;-62
2022/04/27 01:34:06;;;;;;;;;14.75;14.75;;;;;;;;5077587;27;45548;-61
2022/04/27 01:36:31;;;;;;;;;14.00;14.00;;;;;;;;5077618;27;47115;-62
2022/04/27 01:38:56;;;;;;;;;15.50;13.00;;;;;;;;5057142;28;46127;-62
2022/04/27 01:41:21;;;;;;;;;16.00;15.00;;;;;;;;5092402;27;45582;-63
2022/04/27 01:43:47;;;;;;;;;18.50;17.00;;;;;;;;5084662;27;45247;-62
2022/04/27 01:46:12;;;;;;;;;14.25;14.25;;;;;;;;5077184;27;46145;-62
2022/04/27 01:48:39;;;;;;;;;17.50;17.50;;;;;;;;5077004;27;45383;-62
2022/04/27 01:51:04;;;;;;;;;14.00;13.00;;;;;;;;5075275;27;45542;-62
2022/04/27 01:56:15;;;;;;;;;18.00;16.25;;;;;;;;5077097;27;45773;-62
2022/04/27 01:58:41;;;;;;;;;15.00;15.00;;;;;;;;5076965;27;45399;-63
2022/04/27 02:01:10;;;;;;;;;22.00;20.25;;;;;;;;5075745;27;45523;-63
2022/04/27 02:03:36;;;;;;;;;16.75;16.00;;;;;;;;5076625;27;45362;-63
2022/04/27 02:06:01;;;;;;;;;18.00;17.25;;;;;;;;5074437;28;46135;-63
2022/04/27 02:08:26;;;;;;;;;20.25;20.25;;;;;;;;5076983;27;45587;-63
2022/04/27 02:10:51;;;;;;;;;16.50;16.00;;;;;;;;5077193;27;45614;-64
2022/04/27 02:13:16;;;;;;;;;18.00;14.75;;;;;;;;5077211;27;45622;-64
2022/04/27 02:15:43;;;;;;;;;18.25;15.75;;;;;;;;5077024;27;46214;-63
2022/04/27 02:18:08;;;;;;;;;15.75;14.25;;;;;;;;5074465;27;45434;-64
2022/04/27 02:20:34;;;;;;;;;18.00;17.25;;;;;;;;5093478;27;45313;-64
2022/04/27 02:22:59;;;;;;;;;19.00;15.75;;;;;;;;5086922;27;45550;-63
2022/04/27 02:25:24;;;;;;;;;19.00;19.00;;;;;;;;5076968;27;47056;-63
2022/04/27 02:27:50;;;;;;;;;22.00;20.25;;;;;;;;5076967;27;45533;-63
2022/04/27 02:30:15;;;;;;;;;22.00;18.00;;;;;;;;5075051;27;45412;-63
2022/04/27 02:32:40;;;;;;;;;21.00;19.00;;;;;;;;5076618;27;45379;-64
2022/04/27 02:35:06;;;;;;;;;19.50;19.50;;;;;;;;5076475;27;45647;-63
2022/04/27 02:37:32;;;;;;;;;22.25;19.25;;;;;;;;5076382;27;45530;-62
2022/04/27 02:39:57;;;;;;;;;21.50;20.00;;;;;;;;5058269;28;45612;-62
2022/04/27 02:42:23;;;;;;;;;24.75;22.50;;;;;;;;5057117;27;45525;-63
2022/04/27 02:44:48;;;;;;;;;22.00;21.75;;;;;;;;5075497;27;47549;-63
2022/04/27 02:47:14;;;;;;;;;20.50;19.50;;;;;;;;5076380;27;45584;-63
2022/04/27 02:52:23;;;;;;;;;24.00;22.25;;;;;;;;5076658;27;45707;-63
2022/04/27 02:54:48;;;;;;;;;24.00;22.75;;;;;;;;5056804;28;46637;-63
2022/04/27 02:57:16;;;;;;;;;23.00;21.00;;;;;;;;5074693;27;45507;-63
2022/04/27 02:59:41;;;;;;;;;19.75;19.00;;;;;;;;5093120;27;45295;-63
2022/04/27 03:02:06;;;;;;;;;22.00;19.75;;;;;;;;5080499;27;45367;-62
2022/04/27 03:04:32;;;;;;;;;18.25;18.25;;;;;;;;5076377;27;45769;-62
2022/04/27 03:06:57;;;;;;;;;20.50;20.50;;;;;;;;5058308;28;45576;-62
2022/04/27 03:09:23;;;;;;;;;22.00;22.00;;;;;;;;5057951;27;45838;-63
2022/04/27 03:11:48;;;;;;;;;27.25;27.00;;;;;;;;5075983;27;45439;-62
2022/04/27 03:14:13;;;;;;;;;26.25;23.00;;;;;;;;5061273;28;47472;-63
2022/04/27 03:16:39;;;;;;;;;25.00;22.50;;;;;;;;5080728;27;45516;-62
2022/04/27 03:19:04;;;;;;;;;27.75;24.00;;;;;;;;5084586;27;45377;-63
2022/04/27 03:21:29;;;;;;;;;24.50;21.75;;;;;;;;5097226;27;45572;-62
2022/04/27 03:23:55;;;;;;;;;24.50;22.00;;;;;;;;5077461;27;45657;-63
2022/04/27 03:26:20;;;;;;;;;26.25;25.00;;;;;;;;5079524;27;45495;-62
2022/04/27 03:28:45;;;;;;;;;25.75;25.75;;;;;;;;5079689;27;45334;-62
2022/04/27 03:31:10;;;;;;;;;29.00;25.00;;;;;;;;5079528;27;45373;-62
2022/04/27 03:33:36;;;;;;;;;26.25;25.00;;;;;;;;5079496;27;45636;-62
2022/04/27 03:36:01;;;;;;;;;29.50;27.25;;;;;;;;5077092;28;45772;-63
2022/04/27 03:38:26;;;;;;;;;30.75;29.00;;;;;;;;5095048;27;45397;-62
2022/04/27 03:40:51;;;;;;;;;25.25;23.75;;;;;;;;5085625;27;45495;-62
2022/04/27 03:43:17;;;;;;;;;26.50;22.75;;;;;;;;5066880;27;46371;-63
2022/04/27 03:45:42;;;;;;;;;26.25;23.00;;;;;;;;5075842;27;45552;-63
2022/04/27 03:48:07;;;;;;;;;27.25;22.00;;;;;;;;5077291;27;46063;-62
2022/04/27 03:50:33;;;;;;;;;31.75;27.25;;;;;;;;5079159;27;45593;-62
2022/04/27 03:52:59;;;;;;;;;24.25;20.50;;;;;;;;5078766;27;46554;-62
2022/04/27 03:55:24;;;;;;;;;32.75;26.00;;;;;;;;5079843;27;45651;-62
2022/04/27 03:57:49;;;;;;;;;25.00;23.25;;;;;;;;5093796;27;45415;-62
2022/04/27 04:00:15;;;;;;;;;29.00;26.75;;;;;;;;5075916;27;45431;-62
2022/04/27 04:02:40;;;;;;;;;25.75;25.75;;;;;;;;5064738;28;48256;-62
2022/04/27 04:05:06;;;;;;;;;24.50;24.50;;;;;;;;5060835;28;45779;-61
2022/04/27 04:07:32;;;;;;;;;31.50;29.25;;;;;;;;5079408;27;45590;-61
2022/04/27 04:09:57;;;;;;;;;30.75;26.75;;;;;;;;5079049;27;45751;-62
2022/04/27 04:12:22;;;;;;;;;29.25;29.00;;;;;;;;5059974;27;47291;-62
2022/04/27 04:14:47;;;;;;;;;29.00;25.50;;;;;;;;5077791;27;45627;-62
2022/04/27 04:17:12;;;;;;;;;26.00;23.75;;;;;;;;5092621;27;45381;-62
2022/04/27 04:19:39;;;;;;;;;34.75;30.50;;;;;;;;5086929;27;45772;-63
2022/04/27 04:22:04;;;;;;;;;30.25;30.00;;;;;;;;5078717;27;45502;-62
2022/04/27 04:24:29;;;;;;;;;31.50;29.50;;;;;;;;5077176;27;45365;-62
2022/04/27 04:29:39;;;;;;;;;25.00;21.50;;;;;;;;5093544;27;45399;-61
2022/04/27 04:32:04;;;;;;;;;29.50;27.75;;;;;;;;5082674;27;45396;-63
2022/04/27 04:34:29;;;;;;;;;31.25;28.75;;;;;;;;5078479;27;45472;-61
2022/04/27 04:36:54;;;;;;;;;23.25;23.25;;;;;;;;5078654;27;45459;-62
2022/04/27 04:39:20;;;;;;;;;30.25;26.00;;;;;;;;5076755;27;45423;-63
2022/04/27 04:41:45;;;;;;;;;29.25;26.25;;;;;;;;5077714;27;45824;-62
2022/04/27 04:44:10;;;;;;;;;34.25;32.75;;;;;;;;5078238;27;45529;-62
2022/04/27 04:46:35;;;;;;;;;34.75;29.00;;;;;;;;5087030;27;45478;-62
2022/04/27 04:49:00;;;;;;;;;32.50;31.25;;;;;;;;5091818;27;45514;-62
2022/04/27 04:51:26;;;;;;;;;32.00;29.50;;;;;;;;5077273;27;46384;-63
2022/04/27 04:53:51;;;;;;;;;27.50;26.75;;;;;;;;5076632;27;45350;-63
2022/04/27 04:56:16;;;;;;;;;32.50;27.75;;;;;;;;5092624;27;45677;-63
2022/04/27 04:58:42;;;;;;;;;35.75;32.00;;;;;;;;5085717;27;45462;-63
2022/04/27 05:01:07;;;;;;;;;30.50;29.75;;;;;;;;5077375;27;45641;-64
2022/04/27 05:03:36;;;;;;;;;36.50;31.50;;;;;;;;5078118;27;45507;-63
2022/04/27 05:06:01;;;;;;;;;32.75;29.25;;;;;;;;5075661;27;45427;-63
2022/04/27 05:08:26;;;;;;;;;33.25;29.00;;;;;;;;5077994;27;45572;-61
2022/04/27 05:10:53;;;;;;;;;36.75;32.75;;;;;;;;5077616;27;46555;-62
2022/04/27 05:13:18;;;;;;;;;34.25;28.75;;;;;;;;5077353;27;45469;-62
2022/04/27 05:15:43;;;;;;;;;33.75;30.50;;;;;;;;5077919;27;44787;-62
2022/04/27 05:18:08;;;;;;;;;36.75;33.25;;;;;;;;5075870;27;45582;-62
2022/04/27 05:20:34;;;;;;;;;29.50;29.25;;;;;;;;5071145;28;48522;-64
2022/04/27 05:22:59;;;;;;;;;32.75;29.25;;;;;;;;5089687;27;45508;-63
2022/04/27 05:25:24;;;;;;;;;36.75;33.50;;;;;;;;5087450;27;45414;-63
2022/04/27 05:27:49;;;;;;;;;39.50;34.50;;;;;;;;5058489;28;45445;-63
2022/04/27 05:32:58;;;;;;;;;29.00;26.50;;;;;;;;5075315;28;45517;-63
2022/04/27 05:35:23;;;;;;;;;32.75;28.75;;;;;;;;5092368;27;45412;-64
2022/04/27 05:37:49;;;;;;;;;33.00;30.50;;;;;;;;5084132;27;45579;-63
2022/04/27 05:40:14;;;;;;;;;31.50;30.25;;;;;;;;5058843;28;47488;-63
2022/04/27 05:42:39;;;;;;;;;37.50;35.50;;;;;;;;5059239;27;45395;-63
2022/04/27 05:45:05;;;;;;;;;41.50;35.00;;;;;;;;5075207;27;45483;-62
2022/04/27 05:47:31;;;;;;;;;39.75;34.00;;;;;;;;5077403;27;45485;-63
2022/04/27 05:49:56;;;;;;;;;32.50;32.25;;;;;;;;5077295;27;46538;-61
2022/04/27 05:52:21;;;;;;;;;38.00;34.00;;;;;;;;5054529;28;45588;-63
2022/04/27 05:54:47;;;;;;;;;35.00;34.00;;;;;;;;5062319;27;45445;-64
2022/04/27 05:57:12;;;;;;;;;34.00;32.25;;;;;;;;5095128;27;45392;-64
2022/04/27 05:59:38;;;;;;;;;38.25;33.75;;;;;;;;5077200;27;45751;-64
2022/04/27 06:02:03;;;;;;;;;36.75;33.00;;;;;;;;5076740;27;45566;-63
2022/04/27 06:04:28;;;;;;;;;33.75;31.00;;;;;;;;5077267;27;45431;-64
2022/04/27 06:06:53;;;;;;;;;33.50;32.25;;;;;;;;5058476;28;45413;-64
2022/04/27 06:09:19;;;;;;;;;29.75;29.50;;;;;;;;5075168;27;45577;-65
2022/04/27 06:11:44;;;;;;;;;40.00;36.50;;;;;;;;5076600;27;45346;-64
2022/04/27 06:14:09;;;;;;;;;40.25;33.75;;;;;;;;5058786;28;45546;-63
2022/04/27 06:16:35;;;;;;;;;34.50;31.25;;;;;;;;5076868;27;45467;-64
2022/04/27 06:19:00;;;;;;;;;29.50;29.50;;;;;;;;5076530;27;45608;-64
2022/04/27 06:21:30;;;;;;;;;39.75;36.25;;;;;;;;5075843;27;45368;-63
2022/04/27 06:23:56;;;;;;;;;34.25;33.25;;;;;;;;5090288;27;45438;-63
2022/04/27 06:26:21;;;;;;;;;34.00;31.75;;;;;;;;5078192;27;45360;-63
2022/04/27 06:28:46;;;;;;;;;35.00;31.00;;;;;;;;5085899;27;46537;-64
2022/04/27 06:31:11;;;;;;;;;41.75;36.75;;;;;;;;5089762;27;45360;-64
2022/04/27 06:33:36;;;;;;;;;36.00;31.75;;;;;;;;5077083;27;45509;-63
2022/04/27 06:36:02;;;;;;;;;36.75;33.00;;;;;;;;5061588;27;45369;-64
2022/04/27 06:38:27;;;;;;;;;36.25;33.25;;;;;;;;5077487;27;45818;-63
2022/04/27 06:40:52;;;;;;;;;32.25;31.75;;;;;;;;5057945;28;46329;-63
2022/04/27 06:43:17;;;;;;;;;39.00;33.25;;;;;;;;5044366;28;45567;-64
2022/04/27 06:45:43;;;;;;;;;41.50;34.75;;;;;;;;5076786;27;45258;-63
2022/04/27 06:48:08;;;;;;;;;47.50;35.25;;;;;;;;5077066;27;46328;-62
2022/04/27 06:50:33;;;;;;;;;41.25;36.00;;;;;;;;5079746;27;45348;-63
2022/04/27 06:53:01;;;;;;;;;39.25;33.00;;;;;;;;5091809;27;45528;-63
2022/04/27 06:55:27;;;;;;;;;41.00;36.50;;;;;;;;5089796;27;45494;-64
2022/04/27 06:57:52;;;;;;;;;44.25;36.50;;;;;;;;5079846;27;46416;-63
2022/04/27 07:00:18;;;;;;;;;40.25;33.50;;;;;;;;5077757;27;45429;-64
2022/04/27 07:02:43;;;;;;;;;42.75;36.00;;;;;;;;5061373;28;45501;-63
2022/04/27 07:05:18;;;;;;;;;35.25;32.50;;;;;;;;5079773;27;47107;-63
2022/04/27 07:07:46;;;;;;;;;41.00;34.75;;;;;;;;5079750;27;45880;-63
2022/04/27 07:10:12;;;;;;;;;42.75;36.75;;;;;;;;5079074;27;45535;-63
2022/04/27 07:12:38;;;;;;;;;40.00;35.00;;;;;;;;5078749;27;45530;-64
2022/04/27 07:15:04;;;;;;;;;33.50;33.00;;;;;;;;5076853;27;45398;-64
2022/04/27 07:17:29;;;;;;;;;44.25;36.25;;;;;;;;5067022;28;45627;-64
2022/04/27 07:19:54;;;;;;;;;38.25;34.00;;;;;;;;5079654;27;45352;-63
2022/04/27 07:22:19;;;;;;;;;32.50;31.50;;;;;;;;5063852;28;45633;-63
2022/04/27 07:24:44;;;;;;;;;40.00;35.25;;;;;;;;5080269;27;47294;-64
2022/04/27 07:27:10;;;;;;;;;31.75;29.75;;;;;;;;5077432;27;46642;-63
2022/04/27 07:29:35;;;;;;;;;37.75;35.25;;;;;;;;5070726;28;45565;-63
2022/04/27 07:32:01;;;;;;;;;44.00;35.75;;;;;;;;5078332;27;45286;-63
2022/04/27 07:34:26;;;;;;;;;33.50;31.50;;;;;;;;5061155;28;45565;-63
2022/04/27 07:36:52;;;;;;;;;39.25;36.50;;;;;;;;5062312;27;48211;-63
2022/04/27 07:39:17;;;;;;;;;47.00;37.25;;;;;;;;5077052;27;45428;-63
2022/04/27 07:41:45;;;;;;;;;34.75;33.75;;;;;;;;5079325;27;45682;-63
2022/04/27 07:44:10;;;;;;;;;41.75;35.75;;;;;;;;5060960;28;45550;-64
2022/04/27 07:46:35;;;;;;;;;39.50;36.00;;;;;;;;5078779;27;46803;-63
2022/04/27 07:49:00;;;;;;;;;50.25;40.00;;;;;;;;5078880;27;45533;-64
2022/04/27 07:51:25;;;;;;;;;35.75;31.25;;;;;;;;5077846;27;45605;-63
2022/04/27 07:53:51;;;;;;;;;39.25;35.25;;;;;;;;5077834;27;45367;-63
2022/04/27 07:56:16;;;;;;;;;39.75;35.75;;;;;;;;5094028;27;45998;-62
2022/04/27 07:58:41;;;;;;;;;38.50;35.50;;;;;;;;5070598;28;45450;-63
2022/04/27 08:01:06;;;;;;;;;39.00;35.75;;;;;;;;5078842;27;45443;-62
2022/04/27 08:03:32;;;;;;;;;41.25;36.25;;;;;;;;5079072;27;45345;-63
2022/04/27 08:05:57;;;;;;;;;35.75;34.00;;;;;;;;5076499;27;45400;-62
2022/04/27 08:08:22;;;;;;;;;45.00;38.00;;;;;;;;5079684;27;45507;-62
2022/04/27 08:10:48;;;;;;;;;40.00;35.75;;;;;;;;5067268;28;45397;-62
2022/04/27 08:13:15;;;;;;;;;45.25;38.75;;;;;;;;5053438;27;45389;-62
2022/04/27 08:15:40;;;;;;;;;38.50;35.25;;;;;;;;5093504;27;47154;-63
2022/04/27 08:18:09;;;;;;;;;45.75;37.75;;;;;;;;5075634;27;45369;-64
2022/04/27 08:23:22;;;;;;;;;37.75;35.00;;;;;;;;5078437;27;45493;-63
2022/04/27 08:25:48;;;;;;;;;37.50;35.00;;;;;;;;5077661;27;45736;-63
2022/04/27 08:28:13;;;;;;;;;45.50;35.25;;;;;;;;5077735;27;45608;-62
2022/04/27 08:30:40;;;;;;;;;41.50;34.00;;;;;;;;5061027;27;45526;-63
2022/04/27 08:33:06;;;;;;;;;40.00;34.00;;;;;;;;5071126;27;45670;-62
2022/04/27 08:35:32;;;;;;;;;47.50;38.00;;;;;;;;5092803;27;45685;-63
2022/04/27 08:37:57;;;;;;;;;41.50;35.75;;;;;;;;5069771;28;45398;-63
2022/04/27 08:40:24;;;;;;;;;34.00;32.25;;;;;;;;5078009;27;45528;-63
2022/04/27 08:42:49;;;;;;;;;39.00;36.00;;;;;;;;5058844;28;45508;-62
2022/04/27 08:45:15;;;;;;;;;37.75;34.50;;;;;;;;5075929;27;45926;-62
2022/04/27 08:47:40;;;;;;;;;41.75;35.50;;;;;;;;5077995;27;45714;-62
2022/04/27 08:50:12;;;;;;;;;44.00;36.75;;;;;;;;5090988;27;45564;-62
2022/04/27 08:52:39;;;;;;;;;40.50;36.25;;;;;;;;5086489;27;45485;-63
2022/04/27 08:55:04;;;;;;;;;38.00;33.00;;;;;;;;5077898;27;45711;-63
2022/04/27 08:57:29;;;;;;;;;43.25;37.00;;;;;;;;5075666;27;45472;-63
2022/04/27 08:59:56;;;;;;;;;40.00;34.25;;;;;;;;5093265;27;45490;-63
2022/04/27 09:02:27;;;;;;;;;38.25;34.50;;;;;;;;5080238;27;45535;-63
2022/04/27 09:05:05;;;;;;;;;40.00;31.50;;;;;;;;5077742;27;45465;-62
2022/04/27 09:07:34;;;;;;;;;43.50;34.75;;;;;;;;5077713;27;45428;-62
2022/04/27 09:10:00;;;;;;;;;45.50;38.50;;;;;;;;5077317;27;45628;-62
2022/04/27 09:12:25;;;;;;;;;40.75;34.50;;;;;;;;5076808;27;45475;-62
2022/04/27 09:14:50;;;;;;;;;40.75;37.00;;;;;;;;5076507;27;45523;-63
2022/04/27 09:22:58;;;;;;;;;41.50;34.50;;;;;;;;5077685;27;45455;-62
2022/04/27 09:25:34;;;;;;;;;39.25;34.00;;;;;;;;5077223;27;45796;-63
2022/04/27 09:28:03;;;;;;;;;34.75;33.25;;;;;;;;5070465;28;45488;-63
2022/04/27 09:30:32;;;;;;;;;34.25;30.75;;;;;;;;5092127;27;45482;-63
2022/04/27 09:32:58;;;;;;;;;31.00;30.75;;;;;;;;5075433;27;45270;-63
2022/04/27 09:35:32;;;;;;;;;39.00;33.00;;;;;;;;5077090;27;46381;-64
2022/04/27 09:38:10;;;;;;;;;37.25;34.25;;;;;;;;5077306;27;45468;-64
2022/04/27 09:40:57;;;;;;;;;33.75;31.25;;;;;;;;5077051;27;45392;-63
2022/04/27 09:43:41;;;;;;;;;35.25;31.00;;;;;;;;5077237;27;45424;-63
2022/04/27 09:46:22;;;;;;;;;37.50;33.75;;;;;;;;5077374;27;45826;-63
2022/04/27 09:48:48;;;;;;;;;32.25;30.00;;;;;;;;5056774;28;45417;-63
2022/04/27 09:51:13;;;;;;;;;35.00;32.00;;;;;;;;5075766;27;45392;-63
2022/04/27 09:53:40;;;;;;;;;28.00;25.75;;;;;;;;5077632;27;45330;-63
2022/04/27 09:56:09;;;;;;;;;34.50;31.25;;;;;;;;5077095;27;46480;-64
2022/04/27 09:58:39;;;;;;;;;35.50;33.25;;;;;;;;5076815;27;45361;-63
2022/04/27 10:01:04;;;;;;;;;35.00;32.25;;;;;;;;5076417;27;45607;-62
2022/04/27 10:03:33;;;;;;;;;30.00;29.00;;;;;;;;5075817;27;45651;-63
2022/04/27 10:05:59;;;;;;;;;35.00;31.75;;;;;;;;5074263;28;48300;-63
2022/04/27 10:08:25;;;;;;;;;34.75;31.50;;;;;;;;5076560;27;45334;-63
2022/04/27 10:10:51;;;;;;;;;36.00;34.00;;;;;;;;5064415;28;45427;-63
2022/04/27 10:13:16;;;;;;;;;31.50;30.50;;;;;;;;5076816;27;45424;-63
2022/04/27 10:15:43;;;;;;;;;40.25;35.75;;;;;;;;5058673;27;47383;-63
2022/04/27 10:18:09;;;;;;;;;34.50;31.25;;;;;;;;5070052;27;45434;-63
2022/04/27 10:20:34;;;;;;;;;39.50;33.25;;;;;;;;5091893;27;45469;-63
2022/04/27 10:23:15;;;;;;;;;35.75;30.75;;;;;;;;5088936;27;45403;-64
2022/04/27 10:25:40;;;;;;;;;33.75;29.75;;;;;;;;5080511;27;45522;-64
2022/04/27 10:28:20;;;;;;;;;31.50;30.50;;;;;;;;5080326;27;45333;-64
2022/04/27 10:30:46;;;;;;;;;33.50;30.00;;;;;;;;5096212;27;45445;-63
2022/04/27 10:33:11;;;;;;;;;38.25;34.75;;;;;;;;5098039;27;45384;-64
2022/04/27 10:35:36;;;;;;;;;35.75;30.25;;;;;;;;5080845;27;45459;-64
2022/04/27 10:38:05;;;;;;;;;29.00;28.50;;;;;;;;5091520;27;45467;-64
2022/04/27 10:40:42;;;;;;;;;31.25;28.75;;;;;;;;5089825;27;45423;-63
2022/04/27 10:43:08;;;;;;;;;35.00;29.75;;;;;;;;5080147;27;45629;-64
2022/04/27 10:45:33;;;;;;;;;32.75;30.25;;;;;;;;5079715;27;46415;-64
2022/04/27 10:47:59;;;;;;;;;30.25;28.50;;;;;;;;5093679;27;45513;-64
2022/04/27 10:50:31;;;;;;;;;31.25;30.00;;;;;;;;5082127;27;45384;-63
2022/04/27 10:52:58;;;;;;;;;31.50;29.25;;;;;;;;5067455;28;45555;-63
2022/04/27 10:55:35;;;;;;;;;34.00;31.25;;;;;;;;5079472;27;45994;-63
2022/04/27 10:58:14;;;;;;;;;37.25;30.50;;;;;;;;5079339;27;45486;-63
2022/04/27 11:00:58;;;;;;;;;28.50;28.00;;;;;;;;5095187;27;45568;-63
2022/04/27 11:03:24;;;;;;;;;33.50;30.50;;;;;;;;5097382;27;45589;-63
2022/04/27 11:05:50;;;;;;;;;31.75;29.25;;;;;;;;5078611;27;46146;-63
2022/04/27 11:08:20;;;;;;;;;26.00;25.00;;;;;;;;5061063;28;45384;-63
2022/04/27 11:10:46;;;;;;;;;27.50;26.50;;;;;;;;5066948;28;45532;-63
2022/04/27 11:13:12;;;;;;;;;35.25;27.25;;;;;;;;5079316;27;45883;-64
2022/04/27 11:15:38;;;;;;;;;32.00;29.75;;;;;;;;5078942;27;45706;-64
2022/04/27 11:18:03;;;;;;;;;26.75;26.25;;;;;;;;5076754;27;45438;-63
2022/04/27 11:20:33;;;;;;;;;28.50;28.50;;;;;;;;5073989;28;45582;-64
2022/04/27 11:23:00;;;;;;;;;14.00;12.75;;;;;;;;5062587;28;45562;-64
2022/04/27 11:25:30;;;;;;;;;24.50;21.75;;;;;;;;5086315;27;46560;-63
2022/04/27 11:27:56;;;;;;;;;27.75;26.75;;;;;;;;5093703;27;45641;-64
2022/04/27 11:30:22;;;;;;;;;26.25;26.25;;;;;;;;5077493;27;45399;-63
2022/04/27 11:32:51;;;;;;;;;25.50;24.25;;;;;;;;5078190;27;45463;-63
2022/04/27 11:35:16;;;;;;;;;30.00;29.50;;;;;;;;5060863;28;47668;-63
2022/04/27 11:37:42;;;;;;;;;28.25;28.25;;;;;;;;5060404;28;45534;-64
2022/04/27 11:40:12;;;;;;;;;29.50;29.50;;;;;;;;5079090;27;45482;-63
2022/04/27 11:42:40;;;;;;;;;33.25;30.50;;;;;;;;5079282;27;45443;-62
2022/04/27 11:45:06;;;;;;;;;25.50;24.25;;;;;;;;5061914;27;47608;-63
2022/04/27 11:47:32;;;;;;;;;25.75;25.75;;;;;;;;5079832;27;45474;-63
2022/04/27 11:49:58;;;;;;;;;27.25;26.25;;;;;;;;5079262;27;45440;-64
2022/04/27 11:52:23;;;;;;;;;23.00;19.25;;;;;;;;5079301;27;45681;-63
2022/04/27 11:54:49;;;;;;;;;25.25;22.75;;;;;;;;5078816;27;45971;-63
2022/04/27 11:57:21;;;;;;;;;23.00;21.50;;;;;;;;5076820;27;45306;-63
2022/04/27 11:59:47;;;;;;;;;31.00;29.50;;;;;;;;5080649;27;45583;-63
2022/04/27 12:02:13;;;;;;;;;27.50;26.25;;;;;;;;5078300;27;45475;-63
2022/04/27 12:04:41;;;;;;;;;23.50;23.50;;;;;;;;5053043;27;48342;-63
2022/04/27 12:07:13;;;;;;;;;23.25;21.75;;;;;;;;5090260;27;45550;-63
2022/04/27 12:09:38;;;;;;;;;28.00;23.00;;;;;;;;5060539;27;46027;-63
2022/04/27 12:12:11;;;;;;;;;21.00;20.00;;;;;;;;5076168;27;45802;-64
2022/04/27 12:14:37;;;;;;;;;26.25;24.25;;;;;;;;5093016;27;45877;-64
2022/04/27 12:17:02;;;;;;;;;24.25;24.25;;;;;;;;5083509;27;45360;-62
2022/04/27 12:19:28;;;;;;;;;24.75;24.50;;;;;;;;5078337;27;46302;-63
2022/04/27 12:22:10;;;;;;;;;23.50;20.75;;;;;;;;5078428;27;45445;-63
2022/04/27 12:24:43;;;;;;;;;19.25;16.00;;;;;;;;5078586;27;46625;-63
2022/04/27 12:27:20;;;;;;;;;22.75;20.00;;;;;;;;5096481;27;45352;-62
2022/04/27 12:29:46;;;;;;;;;16.75;15.75;;;;;;;;5090411;27;45456;-63
2022/04/27 12:32:11;;;;;;;;;23.00;20.00;;;;;;;;5080402;27;45408;-63
2022/04/27 12:37:34;;;;;;;;;20.00;20.00;;;;;;;;5078358;27;45411;-63
2022/04/27 12:40:13;;;;;;;;;23.25;23.25;;;;;;;;5078007;27;45606;-63
2022/04/27 12:42:57;;;;;;;;;22.50;22.25;;;;;;;;5093949;27;45439;-63
2022/04/27 12:45:22;;;;;;;;;21.50;20.25;;;;;;;;5058459;27;47781;-63
2022/04/27 12:47:48;;;;;;;;;23.25;22.75;;;;;;;;5077249;27;45417;-63
2022/04/27 12:50:13;;;;;;;;;22.75;22.75;;;;;;;;5078258;27;45522;-63
2022/04/27 12:52:39;;;;;;;;;23.00;23.00;;;;;;;;5078228;27;45656;-63
2022/04/27 12:55:11;;;;;;;;;23.50;21.75;;;;;;;;5059672;28;46457;-63
2022/04/27 12:57:44;;;;;;;;;20.00;20.00;;;;;;;;5074423;27;45682;-63
2022/04/27 13:00:09;;;;;;;;;17.25;16.25;;;;;;;;5080066;27;45445;-63
2022/04/27 13:02:34;;;;;;;;;19.50;18.50;;;;;;;;5077615;27;45492;-64
2022/04/27 13:05:00;;;;;;;;;18.75;17.25;;;;;;;;5063754;28;46595;-62
2022/04/27 13:07:25;;;;;;;;;20.75;20.75;;;;;;;;5084588;27;45263;-64
2022/04/27 13:12:35;;;;;;;;;20.25;20.25;;;;;;;;5078270;27;45357;-63
2022/04/27 13:15:02;;;;;;;;;21.00;21.00;;;;;;;;5091391;27;46370;-64
2022/04/27 13:17:27;;;;;;;;;18.25;18.25;;;;;;;;5077749;27;45438;-63
2022/04/27 13:19:52;;;;;;;;;22.25;20.00;;;;;;;;5077363;27;45509;-63
2022/04/27 13:22:18;;;;;;;;;23.00;20.50;;;;;;;;5083619;27;45487;-63
2022/04/27 13:24:43;;;;;;;;;19.75;19.75;;;;;;;;5094009;27;46192;-63
2022/04/27 13:27:08;;;;;;;;;18.75;18.75;;;;;;;;5075415;27;45278;-63
2022/04/27 13:29:33;;;;;;;;;16.50;15.50;;;;;;;;5077675;27;45282;-63
2022/04/27 13:31:58;;;;;;;;;22.25;22.25;;;;;;;;5059159;28;45568;-63
2022/04/27 13:34:24;;;;;;;;;17.75;16.50;;;;;;;;5058858;28;48765;-70
2022/04/27 13:36:49;;;;;;;;;17.00;15.00;;;;;;;;5077610;27;45557;-71
2022/04/27 13:39:14;;;;;;;;;22.00;17.50;;;;;;;;5075699;27;45667;-70
2022/04/27 13:41:39;;;;;;;;;20.75;18.50;;;;;;;;5077311;27;45767;-72
2022/04/27 13:44:05;;;;;;;;;22.00;19.25;;;;;;;;5059008;28;48352;-70
2022/04/27 13:46:30;;;;;;;;;23.50;19.25;;;;;;;;5077235;27;45418;-71
2022/04/27 13:48:56;;;;;;;;;19.00;19.00;;;;;;;;5058694;28;45355;-69
2022/04/27 13:51:21;;;;;;;;;19.75;17.25;;;;;;;;5075580;27;45563;-71
2022/04/27 13:53:46;;;;;;;;;17.75;16.75;;;;;;;;5076867;27;45578;-71
2022/04/27 13:56:11;;;;;;;;;17.50;17.25;;;;;;;;5058543;28;45636;-72
2022/04/27 13:58:36;;;;;;;;;21.75;20.75;;;;;;;;5077130;27;45334;-70
2022/04/27 14:01:02;;;;;;;;;22.00;18.00;;;;;;;;5067727;28;45447;-70
2022/04/27 14:03:27;;;;;;;;;16.75;16.75;;;;;;;;5072457;28;46461;-71
2022/04/27 14:05:52;;;;;;;;;18.00;18.00;;;;;;;;5052990;28;45369;-70
2022/04/27 14:08:18;;;;;;;;;21.00;18.75;;;;;;;;5070862;28;45402;-70
2022/04/27 14:10:43;;;;;;;;;16.50;15.00;;;;;;;;5050941;28;45341;-70
2022/04/27 14:13:14;;;;;;;;;21.25;20.50;;;;;;;;5061278;28;45842;-69
2022/04/27 14:18:30;;;;;;;;;19.75;19.00;;;;;;;;5072535;28;45337;-70
2022/04/27 14:20:55;;;;;;;;;14.00;13.25;;;;;;;;5074424;28;45621;-71
2022/04/27 14:23:20;;;;;;;;;17.50;17.50;;;;;;;;5072017;28;45860;-70
2022/04/27 14:25:47;;;;;;;;;15.50;15.50;;;;;;;;5050509;28;45468;-70
2022/04/27 14:28:13;;;;;;;;;21.25;21.25;;;;;;;;5060131;28;45376;-70
2022/04/27 14:30:39;;;;;;;;;16.75;16.75;;;;;;;;5037385;28;45598;-71
2022/04/27 14:33:08;;;;;;;;;23.75;20.25;;;;;;;;5074289;28;46190;-71
2022/04/27 14:35:34;;;;;;;;;19.25;19.25;;;;;;;;5077557;28;45468;-69
2022/04/27 14:37:59;;;;;;;;;18.00;14.50;;;;;;;;5072279;28;49747;-70
2022/04/27 14:40:24;;;;;;;;;14.00;13.50;;;;;;;;5072076;28;45330;-71